Lillington, North Carolina
Current Conditions -  °F | °C
As of 10:15 PM on Monday 26 Jan 2015 (Local Time) from KHRJ Reporting Station
Overcast Overcast  
Wind Chill: 42°   Ceiling: 3700
Heat Index: 44°   Visibility: 10mi
Dew Point: 44°   Wind: 5mph
Humidity: 99%   Direction: 310°NW
Pressure: 29.68"   Gusts: NA
Location:  35.4°N, 78.82°W
Report Text: KHRJ 270315Z AUTO 31004KT 10SM BKN037 OVC045 07/07 A2968 RMK AO2 T00670065
Loading
Personal Weather Stations






























Interactive Weather Map New forecast layout! Learn more

10-Day Weather Forecast

Advertisements
Track Severe Weather on mobile